createdAt,value
2023-03-01T00:01:07.225Z,100.00
2023-03-01T00:02:08.799Z,100.00
2023-03-01T00:03:10.392Z,100.00
2023-03-01T00:04:11.978Z,100.00
2023-03-01T00:05:13.611Z,100.00
2023-03-01T00:06:15.559Z,100.00
2023-03-01T00:07:17.128Z,100.00
2023-03-01T00:08:18.667Z,100.00
2023-03-01T00:09:20.322Z,100.00
2023-03-01T00:10:21.840Z,100.00
2023-03-01T00:11:29.860Z,100.00
2023-03-01T00:12:32.599Z,100.00
2023-03-01T00:13:34.751Z,100.00
2023-03-01T00:14:36.888Z,99.31
2023-03-01T00:15:42.508Z,98.82
2023-03-01T00:16:46.213Z,98.85
2023-03-01T00:17:47.879Z,98.45
2023-03-01T00:18:49.822Z,97.97
2023-03-01T00:19:51.419Z,98.53
2023-03-01T00:20:54.511Z,98.94
2023-03-01T00:21:56.074Z,98.72
2023-03-01T00:22:57.755Z,99.53
2023-03-01T00:23:59.369Z,99.89
2023-03-01T00:25:00.942Z,99.61
2023-03-01T00:26:02.891Z,99.66
2023-03-01T00:27:04.455Z,99.22
2023-03-01T00:28:05.983Z,100.00
2023-03-01T00:29:07.752Z,100.00
2023-03-01T00:30:09.692Z,100.00
2023-03-01T00:31:19.596Z,100.00
2023-03-01T00:32:21.247Z,100.00
2023-03-01T00:33:22.900Z,100.00
2023-03-01T00:34:24.443Z,100.00
2023-03-01T00:35:26.009Z,100.00
2023-03-01T00:36:30.637Z,100.00
2023-03-01T00:37:32.431Z,100.00
2023-03-01T00:38:39.283Z,100.00
2023-03-01T00:39:40.857Z,100.00
2023-03-01T00:40:42.474Z,100.00
2023-03-01T00:41:44.218Z,100.00
2023-03-01T00:42:45.867Z,99.28
2023-03-01T00:43:47.462Z,99.28
2023-03-01T00:44:48.987Z,99.10
2023-03-01T00:45:50.659Z,99.21
2023-03-01T00:46:52.282Z,99.78
2023-03-01T00:47:54.125Z,99.74
2023-03-01T00:48:55.735Z,100.00
2023-03-01T00:49:57.329Z,100.00
2023-03-01T00:51:06.056Z,100.00
2023-03-01T00:52:07.633Z,100.00
2023-03-01T00:53:09.132Z,100.00
2023-03-01T00:54:10.882Z,100.00
2023-03-01T00:55:13.376Z,100.00
2023-03-01T00:56:16.109Z,100.00
2023-03-01T00:57:17.665Z,100.00
2023-03-01T00:58:19.214Z,100.00
2023-03-01T00:59:20.770Z,100.00
2023-03-01T01:00:22.590Z,100.00
2023-03-01T01:01:30.686Z,100.00
2023-03-01T01:02:34.515Z,100.00
2023-03-01T01:03:36.095Z,100.00
2023-03-01T01:04:37.627Z,100.00
2023-03-01T01:05:39.223Z,100.00
2023-03-01T01:06:46.126Z,100.00
2023-03-01T01:07:49.163Z,100.00
2023-03-01T01:08:51.789Z,100.00
2023-03-01T01:09:53.430Z,99.32
2023-03-01T01:10:54.967Z,99.89
2023-03-01T01:11:56.523Z,98.69
2023-03-01T01:12:59.217Z,98.50
2023-03-01T01:14:00.776Z,96.98
2023-03-01T01:15:02.443Z,95.66
2023-03-01T01:16:04.297Z,95.36
2023-03-01T01:17:05.892Z,95.11
2023-03-01T01:18:07.933Z,94.79
2023-03-01T01:19:11.711Z,96.65
2023-03-01T01:20:13.481Z,96.19
2023-03-01T01:21:17.747Z,97.00
2023-03-01T01:22:19.330Z,96.74
2023-03-01T01:23:20.850Z,95.36
2023-03-01T01:24:22.365Z,95.01
2023-03-01T01:25:26.039Z,95.61
2023-03-01T01:26:33.507Z,96.61
2023-03-01T01:27:35.323Z,94.87
2023-03-01T01:28:37.264Z,95.94
2023-03-01T01:29:38.842Z,95.58
2023-03-01T01:30:40.369Z,94.82
2023-03-01T01:31:43.624Z,93.67
2023-03-01T01:32:45.156Z,94.05
2023-03-01T01:33:47.263Z,94.57
2023-03-01T01:36:08.670Z,94.54
2023-03-01T01:37:10.266Z,93.63
2023-03-01T01:38:12.059Z,94.65
2023-03-01T01:39:14.150Z,93.48
2023-03-01T01:40:15.736Z,94.37
2023-03-01T01:41:18.144Z,94.65
2023-03-01T01:45:29.491Z,93.77
2023-03-01T01:46:34.256Z,93.50
2023-03-01T01:47:36.339Z,94.71
2023-03-01T01:48:45.931Z,93.83
2023-03-01T01:49:52.078Z,96.03
2023-03-01T01:51:00.093Z,96.59
2023-03-01T01:52:08.493Z,96.80
2023-03-01T01:53:18.132Z,96.23
2023-03-01T01:54:27.013Z,95.63
2023-03-01T01:55:28.959Z,95.12
2023-03-01T01:56:31.395Z,94.85
2023-03-01T01:57:42.890Z,94.16
2023-03-01T01:58:45.016Z,94.77
2023-03-01T01:59:51.859Z,95.15
2023-03-01T02:00:54.821Z,96.90
2023-03-01T02:01:58.938Z,96.04
2023-03-01T02:03:30.115Z,96.78
2023-03-01T02:04:33.937Z,97.52
2023-03-01T02:05:59.475Z,97.75
2023-03-01T02:07:16.517Z,96.91
2023-03-01T02:08:20.744Z,97.00
2023-03-01T02:09:24.188Z,96.49
2023-03-01T02:10:27.358Z,96.70
2023-03-01T02:11:32.218Z,96.89
2023-03-01T02:12:35.124Z,97.64
2023-03-01T02:13:37.285Z,97.76
2023-03-01T02:14:38.842Z,97.78
2023-03-01T02:15:42.351Z,98.31
2023-03-01T02:16:44.358Z,98.05
2023-03-01T02:17:46.050Z,96.12
2023-03-01T02:18:47.856Z,96.31
2023-03-01T02:20:08.433Z,96.30
2023-03-01T02:21:28.131Z,95.64
2023-03-01T02:22:32.510Z,95.65
2023-03-01T02:23:34.984Z,96.03
2023-03-01T02:24:46.709Z,96.11
2023-03-01T02:25:58.774Z,96.33
2023-03-01T02:27:01.700Z,95.74
2023-03-01T02:28:05.965Z,96.92
2023-03-01T02:29:07.739Z,97.94
2023-03-01T02:30:13.221Z,98.14
2023-03-01T02:31:36.975Z,99.35
2023-03-01T02:32:42.568Z,99.15
2023-03-01T02:33:46.441Z,99.98
2023-03-01T02:34:48.259Z,100.00
2023-03-01T02:35:50.049Z,100.00
2023-03-01T02:37:05.608Z,100.00
2023-03-01T02:38:09.806Z,100.00
2023-03-01T02:39:17.603Z,100.00
2023-03-01T02:40:22.621Z,100.00
2023-03-01T02:41:27.269Z,100.00
2023-03-01T02:42:36.516Z,100.00
2023-03-01T02:43:38.325Z,100.00
2023-03-01T02:44:39.855Z,100.00
2023-03-01T02:45:48.937Z,100.00
2023-03-01T02:46:53.708Z,100.00
2023-03-01T02:47:57.143Z,100.00
2023-03-01T02:48:59.907Z,100.00
2023-03-01T02:50:01.474Z,100.00
2023-03-01T02:51:13.431Z,100.00
2023-03-01T02:52:47.972Z,100.00
2023-03-01T02:53:57.231Z,100.00
2023-03-01T02:55:17.689Z,100.00
2023-03-01T02:56:19.374Z,99.95
2023-03-01T02:57:22.977Z,99.22
2023-03-01T02:58:24.472Z,98.80
2023-03-01T02:59:31.776Z,99.32
2023-03-01T03:00:47.906Z,98.49
2023-03-01T03:01:49.569Z,98.55
2023-03-01T03:02:53.568Z,98.59
2023-03-01T03:03:55.150Z,98.36
2023-03-01T03:04:56.732Z,98.74
2023-03-01T03:05:58.640Z,98.94
2023-03-01T03:07:00.218Z,99.73
2023-03-01T03:08:04.132Z,100.00
2023-03-01T03:09:05.924Z,99.69
2023-03-01T03:10:12.253Z,100.00
2023-03-01T03:11:13.863Z,100.00
2023-03-01T03:12:15.380Z,100.00
2023-03-01T03:13:17.788Z,100.00
2023-03-01T03:14:19.989Z,100.00
2023-03-01T03:15:23.075Z,100.00
2023-03-01T03:16:25.660Z,100.00
2023-03-01T03:17:27.350Z,100.00
2023-03-01T03:18:28.960Z,100.00
2023-03-01T03:19:30.544Z,100.00
2023-03-01T03:20:32.796Z,100.00
2023-03-01T03:21:35.256Z,100.00
2023-03-01T03:22:36.861Z,100.00
2023-03-01T03:23:38.798Z,100.00
2023-03-01T03:24:40.385Z,100.00
2023-03-01T03:25:41.988Z,100.00
2023-03-01T03:26:43.520Z,100.00
2023-03-01T03:27:47.024Z,100.00
2023-03-01T03:28:48.608Z,100.00
2023-03-01T03:29:50.410Z,100.00
2023-03-01T03:30:52.104Z,100.00
2023-03-01T03:31:53.732Z,100.00
2023-03-01T03:32:56.602Z,100.00
2023-03-01T03:33:59.901Z,100.00
2023-03-01T03:35:01.479Z,100.00
2023-03-01T03:36:03.477Z,100.00
2023-03-01T03:37:05.062Z,100.00
2023-03-01T03:38:16.474Z,100.00
2023-03-01T03:39:20.588Z,100.00
2023-03-01T03:40:22.330Z,99.63
2023-03-01T03:41:23.868Z,98.21
2023-03-01T03:42:25.403Z,96.54
2023-03-01T03:43:26.997Z,96.53
2023-03-01T03:44:28.544Z,95.86
2023-03-01T03:45:30.310Z,95.66
2023-03-01T03:46:32.218Z,96.66
2023-03-01T03:47:34.237Z,96.21
2023-03-01T03:48:38.038Z,95.46
2023-03-01T03:49:39.613Z,96.53
2023-03-01T03:50:41.769Z,96.21
2023-03-01T03:51:43.395Z,95.06
2023-03-01T03:52:45.434Z,93.64
2023-03-01T03:53:47.217Z,95.01
2023-03-01T03:54:48.792Z,95.03
2023-03-01T03:55:50.546Z,94.55
2023-03-01T03:56:52.113Z,95.01
2023-03-01T03:57:55.035Z,94.85
2023-03-01T03:58:56.690Z,95.48
2023-03-01T03:59:58.282Z,94.38
2023-03-01T04:01:01.826Z,94.20
2023-03-01T04:02:03.415Z,95.05
2023-03-01T04:03:05.238Z,95.33
2023-03-01T04:04:08.823Z,95.25
2023-03-01T04:05:12.626Z,94.60
2023-03-01T04:06:17.229Z,95.66
2023-03-01T04:07:18.914Z,95.81
2023-03-01T04:08:22.514Z,96.19
2023-03-01T04:09:24.055Z,96.35
2023-03-01T04:10:25.613Z,97.03
2023-03-01T04:11:27.231Z,95.76
2023-03-01T04:12:28.791Z,95.86
2023-03-01T04:13:30.577Z,95.89
2023-03-01T04:14:32.126Z,95.82
2023-03-01T04:15:35.118Z,95.76
2023-03-01T04:16:36.665Z,96.08
2023-03-01T04:17:38.226Z,96.30
2023-03-01T04:18:39.771Z,95.74
2023-03-01T04:19:41.284Z,97.22
2023-03-01T04:20:43.942Z,97.39
2023-03-01T04:21:45.473Z,97.96
2023-03-01T04:22:47.978Z,98.25
2023-03-01T04:23:49.598Z,98.03
2023-03-01T04:24:51.138Z,98.01
2023-03-01T04:25:55.192Z,96.29
2023-03-01T04:26:56.765Z,97.52
2023-03-01T04:27:58.327Z,97.21
2023-03-01T04:28:59.943Z,96.90
2023-03-01T04:30:02.737Z,97.19
2023-03-01T04:31:17.622Z,97.64
2023-03-01T04:32:19.641Z,98.27
2023-03-01T04:33:22.046Z,98.23
2023-03-01T04:34:23.578Z,98.59
2023-03-01T04:35:25.234Z,98.45
2023-03-01T04:36:29.027Z,97.94
2023-03-01T04:37:30.884Z,98.05
2023-03-01T04:38:32.447Z,98.56
2023-03-01T04:39:34.170Z,98.02
2023-03-01T04:40:36.133Z,97.55
2023-03-01T04:41:39.070Z,96.97
2023-03-01T04:42:40.616Z,96.57
2023-03-01T04:43:42.144Z,95.73
2023-03-01T04:44:44.479Z,95.60
2023-03-01T04:45:46.190Z,94.77
2023-03-01T04:46:50.562Z,94.66
2023-03-01T04:47:54.805Z,94.50
2023-03-01T04:48:56.456Z,94.70
2023-03-01T04:49:58.021Z,93.67
2023-03-01T04:51:01.230Z,94.11
2023-03-01T04:52:05.581Z,94.33
2023-03-01T04:53:07.131Z,93.72
2023-03-01T04:54:09.813Z,93.49
2023-03-01T04:55:11.938Z,93.66
2023-03-01T04:56:18.775Z,92.95
2023-03-01T04:57:20.952Z,92.37
2023-03-01T04:58:25.046Z,92.78
2023-03-01T04:59:26.803Z,93.46
2023-03-01T05:00:28.368Z,93.76
2023-03-01T05:01:29.893Z,94.09
2023-03-01T05:02:31.466Z,94.51
2023-03-01T05:03:33.036Z,94.53
2023-03-01T05:04:34.731Z,94.16
2023-03-01T05:05:38.491Z,93.89
2023-03-01T05:06:40.700Z,94.46
2023-03-01T05:07:42.484Z,94.43
2023-03-01T05:08:44.718Z,94.00
2023-03-01T05:09:47.638Z,94.04
2023-03-01T05:10:52.343Z,93.25
2023-03-01T05:11:53.978Z,93.51
2023-03-01T05:12:58.235Z,93.49
2023-03-01T05:14:00.113Z,92.68
2023-03-01T05:15:01.689Z,92.45
2023-03-01T05:16:05.200Z,92.35
2023-03-01T05:17:07.171Z,92.24
2023-03-01T05:18:12.353Z,92.13
2023-03-01T05:19:16.467Z,92.87
2023-03-01T05:20:18.539Z,93.43
2023-03-01T05:21:20.107Z,93.11
2023-03-01T05:22:21.713Z,92.72
2023-03-01T05:23:24.217Z,91.04
2023-03-01T05:24:25.862Z,91.24
2023-03-01T05:25:28.160Z,90.97
2023-03-01T05:26:29.730Z,91.79
2023-03-01T05:27:32.040Z,90.56
2023-03-01T05:28:33.978Z,90.59
2023-03-01T05:29:36.034Z,89.91
2023-03-01T05:30:40.048Z,90.36
2023-03-01T05:31:42.024Z,90.02
2023-03-01T05:32:45.810Z,91.29
2023-03-01T05:33:47.455Z,91.79
2023-03-01T05:34:48.978Z,91.05
2023-03-01T05:35:52.832Z,91.18
2023-03-01T05:36:54.845Z,89.97
2023-03-01T05:37:56.414Z,90.12
2023-03-01T05:38:57.941Z,90.45
2023-03-01T05:39:59.488Z,93.56
2023-03-01T05:41:01.194Z,91.08
2023-03-01T05:42:03.074Z,90.18
2023-03-01T05:43:06.316Z,90.77
2023-03-01T05:44:08.330Z,90.39
2023-03-01T05:45:11.042Z,90.75
2023-03-01T05:46:14.497Z,90.83
2023-03-01T05:47:16.207Z,90.64
2023-03-01T05:48:20.434Z,91.31
2023-03-01T05:49:25.044Z,91.55
2023-03-01T05:50:29.249Z,91.24
2023-03-01T05:51:30.998Z,91.22
2023-03-01T05:52:32.515Z,91.78
2023-03-01T05:53:34.176Z,92.18
2023-03-01T05:54:35.751Z,91.17
2023-03-01T05:55:37.528Z,92.36
2023-03-01T05:56:39.182Z,93.29
2023-03-01T05:57:40.745Z,93.58
2023-03-01T05:58:42.295Z,94.69
2023-03-01T05:59:43.848Z,95.53
2023-03-01T06:00:48.621Z,96.03
2023-03-01T06:01:51.069Z,96.11
2023-03-01T06:02:54.909Z,96.24
2023-03-01T06:03:57.706Z,95.28
2023-03-01T06:04:59.462Z,96.61
2023-03-01T06:06:01.069Z,96.51
2023-03-01T06:07:02.628Z,97.27
2023-03-01T06:08:04.417Z,97.31
2023-03-01T06:09:08.306Z,98.51
2023-03-01T06:10:11.422Z,98.54
2023-03-01T06:11:13.001Z,97.93
2023-03-01T06:12:14.520Z,98.15
2023-03-01T06:13:16.090Z,98.33
2023-03-01T06:14:17.631Z,98.32
2023-03-01T06:15:19.265Z,98.95
2023-03-01T06:16:20.834Z,98.45
2023-03-01T06:17:22.450Z,97.96
2023-03-01T06:18:23.999Z,98.22
2023-03-01T06:19:25.567Z,96.98
2023-03-01T06:20:29.755Z,96.31
2023-03-01T06:21:31.304Z,96.49
2023-03-01T06:22:32.910Z,96.21
2023-03-01T06:23:35.118Z,96.59
2023-03-01T06:24:36.805Z,95.69
2023-03-01T06:25:38.378Z,95.04
2023-03-01T06:26:40.054Z,94.13
2023-03-01T06:27:42.310Z,93.99
2023-03-01T06:28:47.018Z,94.51
2023-03-01T06:29:48.972Z,94.14
2023-03-01T06:30:51.078Z,93.39
2023-03-01T06:31:52.984Z,93.35
2023-03-01T06:33:02.207Z,92.41
2023-03-01T06:34:04.157Z,90.69
2023-03-01T06:35:06.379Z,91.22
2023-03-01T06:36:08.845Z,91.45
2023-03-01T06:37:10.637Z,90.39
2023-03-01T06:38:12.220Z,91.26
2023-03-01T06:39:13.792Z,90.71
2023-03-01T06:40:16.209Z,91.18
2023-03-01T06:41:17.791Z,90.55
2023-03-01T06:42:19.379Z,90.97
2023-03-01T06:43:21.887Z,91.30
2023-03-01T06:44:23.437Z,91.04
2023-03-01T06:45:25.601Z,90.96
2023-03-01T06:46:27.224Z,91.31
2023-03-01T06:47:28.969Z,90.79
2023-03-01T06:48:30.568Z,91.32
2023-03-01T06:49:32.244Z,92.72
2023-03-01T06:50:35.450Z,91.30
2023-03-01T06:51:37.964Z,92.28
2023-03-01T06:52:40.105Z,92.16
2023-03-01T06:53:41.811Z,92.46
2023-03-01T06:54:43.358Z,92.54
2023-03-01T06:55:45.096Z,93.02
2023-03-01T06:56:50.858Z,92.65
2023-03-01T06:57:57.238Z,91.60
2023-03-01T06:58:59.113Z,91.73
2023-03-01T07:00:00.770Z,91.80
2023-03-01T07:01:06.959Z,91.45
2023-03-01T07:02:12.693Z,91.26
2023-03-01T07:03:14.382Z,90.90
2023-03-01T07:04:15.959Z,90.27
2023-03-01T07:05:17.531Z,90.68
2023-03-01T07:06:19.091Z,90.49
2023-03-01T07:07:21.025Z,90.32
2023-03-01T07:08:22.601Z,91.34
2023-03-01T07:09:25.009Z,90.45
2023-03-01T07:10:26.582Z,91.09
2023-03-01T07:11:28.152Z,90.40
2023-03-01T07:12:29.714Z,90.27
2023-03-01T07:13:31.316Z,89.52
2023-03-01T07:14:32.977Z,89.87
2023-03-01T07:15:34.542Z,88.84
2023-03-01T07:16:36.426Z,88.52
2023-03-01T07:17:38.069Z,88.87
2023-03-01T07:18:39.617Z,88.62
2023-03-01T07:19:41.165Z,88.68
2023-03-01T07:20:42.808Z,88.24
2023-03-01T07:21:44.307Z,89.04
2023-03-01T07:22:45.830Z,88.12
2023-03-01T07:23:49.262Z,87.26
2023-03-01T07:24:50.786Z,86.81
2023-03-01T07:25:56.184Z,86.41
2023-03-01T07:26:57.718Z,87.20
2023-03-01T07:27:59.294Z,86.06
2023-03-01T07:29:02.154Z,85.25
2023-03-01T07:30:04.502Z,86.64
2023-03-01T07:31:09.022Z,87.04
2023-03-01T07:32:11.166Z,86.59
2023-03-01T07:33:12.741Z,87.06
2023-03-01T07:34:14.287Z,86.93
2023-03-01T07:35:16.036Z,88.25
2023-03-01T07:36:17.644Z,88.40
2023-03-01T07:37:19.270Z,88.58
2023-03-01T07:38:20.814Z,88.93
2023-03-01T07:39:24.028Z,90.04
2023-03-01T07:40:25.630Z,90.58
2023-03-01T07:41:27.173Z,90.42
2023-03-01T07:42:28.700Z,89.55
2023-03-01T07:43:31.597Z,90.05
2023-03-01T07:44:33.207Z,90.67
2023-03-01T07:45:34.838Z,89.62
2023-03-01T07:46:36.363Z,89.98
2023-03-01T07:47:38.162Z,90.13
2023-03-01T07:48:39.762Z,90.62
2023-03-01T07:49:41.362Z,89.88
2023-03-01T07:50:42.970Z,89.39
2023-03-01T07:51:44.800Z,88.64
2023-03-01T07:52:47.845Z,89.06
2023-03-01T07:53:49.655Z,89.84
2023-03-01T07:54:51.311Z,89.79
2023-03-01T07:56:12.331Z,89.38
2023-03-01T07:57:13.896Z,89.45
2023-03-01T07:58:15.461Z,89.95
2023-03-01T07:59:17.083Z,90.28
2023-03-01T08:00:18.992Z,90.74
2023-03-01T08:01:22.198Z,90.63
2023-03-01T08:02:24.034Z,88.91
2023-03-01T08:03:25.615Z,88.35
2023-03-01T08:04:27.722Z,88.81
2023-03-01T08:05:30.294Z,88.47
2023-03-01T08:06:32.361Z,87.63
2023-03-01T08:07:34.342Z,87.07
2023-03-01T08:08:36.845Z,87.63
2023-03-01T08:09:38.765Z,89.73
2023-03-01T08:10:40.440Z,88.70
2023-03-01T08:11:42.075Z,88.48
2023-03-01T08:12:43.781Z,89.95
2023-03-01T08:13:45.393Z,87.90
2023-03-01T08:14:47.042Z,88.04
2023-03-01T08:15:48.823Z,87.07
2023-03-01T08:16:51.200Z,85.66
2023-03-01T08:17:52.883Z,85.97
2023-03-01T08:18:57.545Z,85.58
2023-03-01T08:19:59.107Z,85.52
2023-03-01T08:21:09.393Z,85.87
2023-03-01T08:22:10.974Z,87.05
2023-03-01T08:23:12.838Z,84.69
2023-03-01T08:24:14.817Z,85.12
2023-03-01T08:25:16.471Z,85.39
2023-03-01T08:26:20.766Z,85.27
2023-03-01T08:27:23.970Z,85.08
2023-03-01T08:28:26.124Z,83.92
2023-03-01T08:29:27.707Z,83.98
2023-03-01T08:30:29.575Z,83.70
2023-03-01T08:31:40.060Z,82.95
2023-03-01T08:32:41.744Z,83.48
2023-03-01T08:33:43.647Z,84.12
2023-03-01T08:34:48.397Z,83.43
2023-03-01T08:35:49.974Z,83.70
2023-03-01T08:36:53.186Z,82.58
2023-03-01T08:37:54.746Z,83.86
2023-03-01T08:38:56.542Z,84.29
2023-03-01T08:39:58.177Z,83.64
2023-03-01T08:41:04.401Z,83.86
2023-03-01T08:42:06.101Z,84.51
2023-03-01T08:43:07.711Z,81.77
2023-03-01T08:44:12.272Z,82.30
2023-03-01T08:45:15.229Z,82.42
2023-03-01T08:46:17.091Z,82.54
2023-03-01T08:47:18.829Z,84.76
2023-03-01T08:48:20.433Z,81.27
2023-03-01T08:49:22.618Z,82.74
2023-03-01T08:50:25.444Z,82.39
2023-03-01T08:51:27.655Z,82.81
2023-03-01T08:52:31.087Z,79.40
2023-03-01T08:53:32.627Z,81.44
2023-03-01T08:54:34.270Z,82.00
2023-03-01T08:55:35.791Z,83.04
2023-03-01T08:56:37.678Z,84.17
2023-03-01T08:57:39.202Z,83.19
2023-03-01T08:58:40.986Z,81.71
2023-03-01T08:59:42.618Z,80.58
2023-03-01T09:00:44.211Z,78.89
2023-03-01T09:01:46.293Z,80.88
2023-03-01T09:02:47.855Z,80.95
2023-03-01T09:03:49.535Z,81.61
2023-03-01T09:04:51.734Z,80.44
2023-03-01T09:05:53.867Z,80.68
2023-03-01T09:06:55.704Z,79.73
2023-03-01T09:07:58.676Z,78.78
2023-03-01T09:09:00.738Z,77.04
2023-03-01T09:10:02.329Z,79.57
2023-03-01T09:11:05.390Z,79.38
2023-03-01T09:12:07.410Z,77.76
2023-03-01T09:13:09.236Z,79.11
2023-03-01T09:14:10.849Z,78.56
2023-03-01T09:15:12.593Z,78.91
2023-03-01T09:16:17.624Z,79.03
2023-03-01T09:17:19.363Z,76.97
2023-03-01T09:18:20.961Z,76.46
2023-03-01T09:19:22.599Z,76.05
2023-03-01T09:20:24.160Z,76.94
2023-03-01T09:21:39.237Z,76.91
2023-03-01T09:22:41.984Z,77.88
2023-03-01T09:23:45.877Z,77.25
2023-03-01T09:24:47.520Z,77.33
2023-03-01T09:25:49.078Z,78.73
2023-03-01T09:26:51.819Z,77.68
2023-03-01T09:27:54.102Z,77.23
2023-03-01T09:28:57.218Z,77.59
2023-03-01T09:29:58.774Z,78.91
2023-03-01T09:31:01.035Z,78.24
2023-03-01T09:32:02.775Z,76.51
2023-03-01T09:33:04.379Z,78.41
2023-03-01T09:34:06.275Z,75.97
2023-03-01T09:35:08.369Z,77.54
2023-03-01T09:36:14.001Z,76.13
2023-03-01T09:37:15.990Z,76.31
2023-03-01T09:38:17.612Z,76.07
2023-03-01T09:39:19.539Z,75.82
2023-03-01T09:40:25.373Z,75.69
2023-03-01T09:41:50.226Z,76.17
2023-03-01T09:43:04.247Z,75.78
2023-03-01T09:44:16.892Z,74.27
2023-03-01T09:45:41.730Z,74.24
2023-03-01T09:46:46.256Z,75.22
2023-03-01T09:47:49.593Z,74.51
2023-03-01T09:49:03.073Z,74.02
2023-03-01T09:50:12.998Z,72.17
2023-03-01T09:51:20.589Z,72.17
2023-03-01T09:52:35.672Z,71.43
2023-03-01T09:53:37.301Z,73.04
2023-03-01T09:54:39.060Z,71.84
2023-03-01T09:56:16.063Z,72.62
2023-03-01T09:57:31.243Z,70.94
2023-03-01T09:59:00.367Z,71.30
2023-03-01T10:00:24.144Z,72.94
2023-03-01T10:01:44.627Z,70.52
2023-03-01T10:03:01.924Z,70.67
2023-03-01T10:04:14.044Z,69.89
2023-03-01T10:05:35.205Z,71.13
2023-03-01T10:06:36.793Z,70.64
2023-03-01T10:07:47.609Z,69.23
2023-03-01T10:08:59.010Z,69.61
2023-03-01T10:10:02.257Z,68.55
2023-03-01T10:11:05.441Z,68.21
2023-03-01T10:12:38.667Z,68.25
2023-03-01T10:13:45.854Z,70.07
2023-03-01T10:15:11.774Z,69.81
2023-03-01T10:16:18.398Z,69.52
2023-03-01T10:17:32.711Z,70.72
2023-03-01T10:18:37.822Z,70.33
2023-03-01T10:19:45.244Z,70.32
2023-03-01T10:20:54.405Z,70.18
2023-03-01T10:22:02.106Z,69.64
2023-03-01T10:23:03.734Z,70.17
2023-03-01T10:24:17.350Z,70.98
2023-03-01T10:25:36.745Z,70.36
2023-03-01T10:26:47.923Z,70.44
2023-03-01T10:27:55.881Z,70.72
2023-03-01T10:29:03.535Z,70.67
2023-03-01T10:30:10.503Z,71.62
2023-03-01T10:31:23.158Z,71.70
2023-03-01T10:32:25.808Z,71.62
2023-03-01T10:33:33.932Z,72.41
2023-03-01T10:34:36.677Z,72.08
2023-03-01T10:35:38.375Z,71.15
2023-03-01T10:36:41.896Z,72.10
2023-03-01T10:38:05.377Z,71.29
2023-03-01T10:39:20.141Z,73.28
2023-03-01T10:40:21.756Z,70.48
2023-03-01T10:41:25.944Z,70.33
2023-03-01T10:42:29.679Z,71.75
2023-03-01T10:43:45.480Z,71.97
2023-03-01T10:44:49.534Z,70.11
2023-03-01T10:45:52.052Z,72.30
2023-03-01T10:47:02.146Z,70.99
2023-03-01T10:48:12.133Z,71.29
2023-03-01T10:49:20.535Z,70.33
2023-03-01T10:50:24.369Z,70.73
2023-03-01T10:51:25.922Z,70.57
2023-03-01T10:52:29.567Z,68.58
2023-03-01T10:53:34.171Z,70.40
2023-03-01T10:54:35.766Z,68.81
2023-03-01T10:55:40.714Z,67.25
2023-03-01T10:56:54.841Z,70.54
2023-03-01T10:58:23.341Z,70.14
2023-03-01T10:59:38.036Z,67.94
2023-03-01T11:01:01.360Z,68.60
2023-03-01T11:02:12.071Z,67.51
2023-03-01T11:03:31.935Z,69.66
2023-03-01T11:04:33.623Z,68.84
2023-03-01T11:05:35.312Z,69.09
2023-03-01T11:06:38.829Z,69.97
2023-03-01T11:07:52.917Z,68.87
2023-03-01T11:08:55.234Z,68.96
2023-03-01T11:09:56.832Z,69.12
2023-03-01T11:11:10.198Z,70.72
2023-03-01T11:12:16.910Z,71.84
2023-03-01T11:13:20.607Z,70.04
2023-03-01T11:14:27.148Z,70.52
2023-03-01T11:15:29.910Z,70.75
2023-03-01T11:16:39.983Z,71.64
2023-03-01T11:17:54.515Z,70.06
2023-03-01T11:19:02.269Z,70.36
2023-03-01T11:20:26.917Z,70.78
2023-03-01T11:21:32.878Z,71.23
2023-03-01T11:22:36.939Z,70.96
2023-03-01T11:23:40.913Z,70.70
2023-03-01T11:24:57.287Z,70.29
2023-03-01T11:26:11.609Z,71.60
2023-03-01T11:27:34.291Z,70.45
2023-03-01T11:28:40.800Z,71.25
2023-03-01T11:29:55.574Z,69.35
2023-03-01T11:31:09.736Z,70.07
2023-03-01T11:32:14.542Z,69.41
2023-03-01T11:33:34.250Z,70.62
2023-03-01T11:34:45.799Z,67.59
2023-03-01T11:36:06.796Z,68.15
2023-03-01T11:37:24.170Z,68.70
2023-03-01T11:38:31.885Z,68.50
2023-03-01T11:39:48.039Z,70.02
2023-03-01T11:41:09.795Z,68.26
2023-03-01T11:42:20.841Z,69.13
2023-03-01T11:43:54.018Z,68.44
2023-03-01T11:45:01.507Z,68.16
2023-03-01T11:46:12.904Z,68.66
2023-03-01T11:47:23.870Z,69.09
2023-03-01T11:49:02.256Z,68.59
2023-03-01T11:50:45.002Z,68.53
2023-03-01T11:52:01.770Z,69.25
2023-03-01T11:53:30.253Z,68.89
2023-03-01T11:55:02.671Z,68.68
2023-03-01T11:56:35.054Z,69.89
2023-03-01T11:58:15.234Z,69.31
2023-03-01T11:59:31.737Z,70.62
2023-03-01T12:00:42.158Z,69.21
2023-03-01T12:02:11.553Z,69.56
2023-03-01T12:03:26.539Z,70.72
2023-03-01T12:04:55.134Z,69.80
2023-03-01T12:06:18.236Z,70.28
2023-03-01T12:07:47.976Z,69.26
2023-03-01T12:09:14.995Z,69.02
2023-03-01T12:10:30.151Z,69.61
2023-03-01T12:11:34.792Z,69.77
2023-03-01T12:12:50.025Z,70.02
2023-03-01T12:14:10.074Z,69.60
2023-03-01T12:15:23.579Z,69.01
2023-03-01T12:16:46.954Z,68.65
2023-03-01T12:18:02.069Z,69.15
2023-03-01T12:19:18.624Z,70.34
2023-03-01T12:20:46.978Z,70.33
2023-03-01T12:22:06.645Z,69.72
2023-03-01T12:23:41.320Z,69.79
2023-03-01T12:25:01.017Z,69.61
2023-03-01T12:26:09.019Z,70.43
2023-03-01T12:27:38.493Z,69.98
2023-03-01T12:29:12.700Z,69.59
2023-03-01T12:30:20.004Z,69.80
2023-03-01T12:31:46.333Z,69.21
2023-03-01T12:32:59.888Z,69.37
2023-03-01T12:34:20.426Z,69.39
2023-03-01T12:35:31.043Z,69.80
2023-03-01T12:36:56.044Z,70.08
2023-03-01T12:38:29.731Z,69.84
2023-03-01T12:40:08.745Z,71.02
2023-03-01T12:41:29.213Z,70.31
2023-03-01T12:42:58.483Z,70.67
2023-03-01T12:44:18.774Z,71.89
2023-03-01T13:32:53.564Z,70.54
2023-03-01T13:33:59.486Z,69.81
2023-03-01T13:35:26.687Z,70.75
2023-03-01T13:36:28.185Z,70.32
2023-03-01T13:37:38.496Z,69.91
2023-03-01T13:38:46.948Z,69.68
2023-03-01T13:39:48.651Z,69.11
2023-03-01T13:40:53.049Z,68.88
2023-03-01T13:41:56.981Z,69.79
2023-03-01T13:43:29.414Z,69.72
2023-03-01T13:44:37.454Z,70.15
2023-03-01T13:45:42.070Z,69.94
2023-03-01T13:46:46.380Z,69.72
2023-03-01T13:47:53.997Z,70.06
2023-03-01T13:48:58.013Z,69.95
2023-03-01T13:50:03.731Z,70.00
2023-03-01T13:51:11.245Z,69.09
2023-03-01T13:52:31.250Z,69.37
2023-03-01T13:53:37.510Z,69.88
2023-03-01T13:54:39.850Z,69.22
2023-03-01T13:56:16.352Z,69.18
2023-03-01T13:57:25.810Z,68.53
2023-03-01T13:58:33.543Z,68.77
2023-03-01T13:59:48.304Z,68.47
2023-03-01T14:01:00.713Z,68.52
2023-03-01T14:02:02.673Z,69.30
2023-03-01T14:03:06.427Z,69.78
2023-03-01T14:04:32.470Z,68.72
2023-03-01T14:05:35.364Z,69.22
2023-03-01T14:06:37.319Z,67.58
2023-03-01T14:07:42.391Z,68.04
2023-03-01T14:08:45.739Z,68.91
2023-03-01T14:09:55.242Z,68.69
2023-03-01T14:11:25.909Z,69.21
2023-03-01T14:12:49.948Z,70.16
2023-03-01T14:14:21.883Z,69.07
2023-03-01T14:16:06.302Z,70.19
2023-03-01T14:17:32.487Z,69.21
2023-03-01T14:19:00.284Z,69.38
2023-03-01T14:20:15.539Z,69.70
2023-03-01T14:21:17.180Z,69.63
2023-03-01T14:22:37.653Z,68.72
2023-03-01T14:23:43.067Z,68.73
2023-03-01T14:24:50.273Z,69.53
2023-03-01T14:25:55.123Z,69.41
2023-03-01T14:26:56.795Z,69.52
2023-03-01T14:28:14.918Z,70.02
2023-03-01T14:29:39.561Z,70.50
2023-03-01T14:30:47.116Z,70.08
2023-03-01T14:31:53.358Z,70.78
2023-03-01T14:32:58.221Z,70.46
2023-03-01T14:33:59.879Z,70.42
2023-03-01T14:35:01.904Z,70.84
2023-03-01T14:36:09.619Z,71.49
2023-03-01T14:37:28.104Z,70.02
2023-03-01T14:38:31.786Z,70.54
2023-03-01T14:39:33.382Z,71.08
2023-03-01T14:40:38.239Z,71.97
2023-03-01T14:41:39.843Z,71.06
2023-03-01T14:42:41.388Z,71.45
2023-03-01T14:43:48.118Z,71.50
2023-03-01T14:44:52.612Z,71.22
2023-03-01T14:45:54.216Z,71.44
2023-03-01T14:46:58.158Z,71.73
2023-03-01T14:48:03.119Z,71.79
2023-03-01T14:49:05.093Z,72.25
2023-03-01T14:50:10.943Z,72.09
2023-03-01T14:51:13.390Z,72.47
2023-03-01T14:52:26.550Z,72.33
2023-03-01T14:53:34.055Z,72.87
2023-03-01T14:54:43.968Z,72.03
2023-03-01T14:55:49.363Z,72.01
2023-03-01T14:56:51.903Z,72.08
2023-03-01T14:57:53.669Z,73.16